Você está realizando uma questão de Piloto Privado de Avião - Meteorologia.

No METAR SBCT 101000Z 15004KT 0800 FG SCT003 BKN005 18/18 Q1016, tem-se:

Você acertou a questão!

A resposta correta é a letra A

Explicação da resposta correta:

No código METAR "SBCT 101000Z 15004KT 0800 FG SCT003 BKN005 18/18 Q1016", a presença de "FG" indica nevoeiro. O nevoeiro é um fenômeno meteorológico que ocorre quando o ar está saturado com vapor d'água e a visibilidade horizontal é reduzida a menos de 1000 metros. Quando o ar está saturado, significa que a quantidade de vapor d'água presente no ar atingiu sua capacidade máxima de retenção a uma determinada temperatura e pressão. Em outras palavras, a umidade relativa é de 100%.

OPS...

Parece que você ainda não possui nenhum plano de assinatura conosco. Não perca tempo! Assine agora um dos nossos planos para ter acesso imediato às respostas. Adquira já!

plugins premium WordPress